Time;durP1;ratioP1;P1;durP2;ratioP2;P2;SDS_P1;SDS_P2;PMS_P1;PMS_P2;Temp;Humidity;BMP_temperature;BMP_pressure;BME280_temperature;BME280_humidity;BME280_pressure;Samples;Min_cycle;Max_cycle;Signal;HPM_P1;HPM_P2
2022/03/25 00:00:58;;;;;;;21.52;5.88;;;;;;;3.37;87.42;102031.25;5278828;28;20024;-77
2022/03/25 00:03:28;;;;;;;15.20;6.07;;;;;;;3.34;85.16;102037.22;5280399;28;20427;-78
2022/03/25 00:05:59;;;;;;;10.43;5.25;;;;;;;3.24;86.26;102039.63;5279429;28;20042;-77
2022/03/25 00:08:29;;;;;;;13.13;5.15;;;;;;;3.19;86.63;102034.38;5280372;28;20053;-77
2022/03/25 00:10:59;;;;;;;13.43;5.55;;;;;;;3.05;87.92;102034.97;5276833;28;20574;-76
2022/03/25 00:13:30;;;;;;;15.50;5.70;;;;;;;3.03;87.15;102031.50;5277029;28;20035;-77
2022/03/25 00:16:00;;;;;;;20.42;5.70;;;;;;;2.75;89.20;102034.41;5273457;28;20495;-76
2022/03/25 00:18:30;;;;;;;13.20;6.00;;;;;;;2.78;90.50;102030.19;5250180;28;20516;-76
2022/03/25 00:21:01;;;;;;;13.15;5.82;;;;;;;2.83;89.66;102036.28;5276074;28;20436;-77
2022/03/25 00:23:31;;;;;;;19.60;6.30;;;;;;;2.80;90.34;102045.69;5276061;28;20088;-77
2022/03/25 00:26:02;;;;;;;21.25;7.90;;;;;;;2.69;90.98;102040.31;5277078;28;20036;-78
2022/03/25 00:28:32;;;;;;;11.93;6.13;;;;;;;2.64;90.80;102043.63;5275400;28;20036;-78
2022/03/25 00:31:06;;;;;;;19.52;8.20;;;;;;;2.85;90.57;102038.91;5279750;28;20440;-78
2022/03/25 00:33:37;;;;;;;23.08;7.90;;;;;;;2.68;90.53;102038.56;5278975;28;20413;-77
2022/03/25 00:36:09;;;;;;;18.27;7.28;;;;;;;2.81;89.66;102037.09;5281857;28;20083;-77
2022/03/25 00:38:39;;;;;;;20.10;6.97;;;;;;;2.69;89.30;102035.16;5279624;28;20155;-77
2022/03/25 00:41:12;;;;;;;15.50;6.57;;;;;;;2.56;90.59;102037.47;5277969;28;20052;-77
2022/03/25 00:43:43;;;;;;;14.27;6.72;;;;;;;2.71;90.26;102032.63;5278620;28;20038;-77
2022/03/25 00:46:15;;;;;;;18.10;6.28;;;;;;;2.67;88.15;102025.66;5273164;28;20741;-77
2022/03/25 00:48:45;;;;;;;16.00;6.13;;;;;;;2.59;86.63;102035.81;5281277;28;20058;-77
2022/03/25 00:51:15;;;;;;;17.45;6.57;;;;;;;2.78;86.89;102026.72;5282814;28;20024;-77
2022/03/25 00:53:46;;;;;;;17.75;6.82;;;;;;;2.57;87.49;102023.72;5281362;28;20027;-78
2022/03/25 00:56:16;;;;;;;18.15;5.93;;;;;;;2.51;88.24;102029.63;5274921;28;20047;-78
2022/03/25 00:58:46;;;;;;;19.20;6.10;;;;;;;2.18;89.97;102028.09;5274932;28;20028;-78
2022/03/25 01:01:16;;;;;;;11.93;5.63;;;;;;;2.16;91.67;102029.75;5275643;28;20027;-77
2022/03/25 01:03:47;;;;;;;15.55;6.82;;;;;;;2.23;91.30;102021.31;5275750;28;20106;-77
2022/03/25 01:06:18;;;;;;;14.35;6.00;;;;;;;2.20;90.29;102023.81;5281711;28;20024;-77
2022/03/25 01:08:48;;;;;;;16.02;6.93;;;;;;;2.29;88.50;102014.56;5276445;28;20119;-77
2022/03/25 01:11:18;;;;;;;12.90;5.72;;;;;;;2.47;87.03;102022.69;5276122;28;20367;-77
2022/03/25 01:13:49;;;;;;;11.93;5.82;;;;;;;2.39;88.05;102018.19;5283605;28;20263;-78
2022/03/25 01:16:19;;;;;;;15.88;5.70;;;;;;;2.46;87.48;102018.34;5276528;28;20032;-77
2022/03/25 01:18:50;;;;;;;12.48;5.93;;;;;;;2.39;87.41;102018.19;5285230;28;20020;-76
2022/03/25 01:21:20;;;;;;;13.65;5.68;;;;;;;2.23;88.14;102019.59;5286525;28;20053;-77
2022/03/25 01:23:51;;;;;;;11.20;5.57;;;;;;;2.24;88.47;102017.88;5286274;28;20491;-78
2022/03/25 01:26:21;;;;;;;14.73;6.03;;;;;;;1.96;89.93;102020.72;5280183;28;20023;-77
2022/03/25 01:28:52;;;;;;;15.98;6.28;;;;;;;1.61;93.72;102011.28;5280572;28;20520;-77
2022/03/25 01:31:23;;;;;;;16.15;6.43;;;;;;;1.70;93.81;102016.69;5273478;28;20150;-77
2022/03/25 01:33:53;;;;;;;11.43;6.10;;;;;;;1.83;94.10;102023.84;5276599;28;20043;-77
2022/03/25 01:36:23;;;;;;;15.02;6.35;;;;;;;1.95;92.02;102016.38;5282472;28;20055;-77
2022/03/25 01:38:53;;;;;;;13.50;6.32;;;;;;;1.86;92.58;102019.63;5284354;28;20031;-77
2022/03/25 01:41:24;;;;;;;11.25;6.20;;;;;;;2.00;90.21;102013.06;5265644;28;20044;-77
2022/03/25 01:43:59;;;;;;;16.55;6.45;;;;;;;2.16;88.83;102014.28;5282929;28;20336;-76
2022/03/25 01:46:30;;;;;;;17.45;6.95;;;;;;;2.18;87.01;102018.63;5273299;28;20046;-78
2022/03/25 01:49:00;;;;;;;16.25;6.80;;;;;;;1.94;87.65;102019.78;5282429;28;20466;-77
2022/03/25 01:51:36;;;;;;;12.57;6.00;;;;;;;1.91;89.11;102014.56;5284844;28;20522;-77
2022/03/25 01:54:19;;;;;;;19.65;6.93;;;;;;;1.77;90.06;102012.53;5281579;28;20117;-76
2022/03/25 01:57:10;;;;;;;13.73;5.85;;;;;;;1.63;90.43;102009.66;5280445;28;20622;-77
2022/03/25 01:59:41;;;;;;;13.70;6.13;;;;;;;1.70;89.67;102016.69;5255225;28;20038;-77
2022/03/25 02:02:11;;;;;;;18.63;6.43;;;;;;;1.63;90.83;102014.81;5279612;28;20028;-77
2022/03/25 02:04:42;;;;;;;15.23;7.15;;;;;;;1.48;90.70;102022.16;5275569;28;20031;-76
2022/03/25 02:07:12;;;;;;;17.48;7.18;;;;;;;1.33;92.41;102023.47;5281036;28;20047;-77
2022/03/25 02:09:42;;;;;;;17.58;7.60;;;;;;;1.26;93.17;102014.72;5281715;28;20058;-76
2022/03/25 02:12:13;;;;;;;16.10;7.22;;;;;;;1.33;92.72;102020.91;5284066;28;20028;-76
2022/03/25 02:14:44;;;;;;;15.40;6.95;;;;;;;1.27;92.25;102019.06;5287714;28;20049;-77
2022/03/25 02:17:15;;;;;;;17.67;7.05;;;;;;;1.15;93.42;102023.03;5273772;28;20111;-77
2022/03/25 02:19:48;;;;;;;14.40;6.55;;;;;;;1.19;93.48;102028.31;5266090;28;20052;-76
2022/03/25 02:22:18;;;;;;;13.95;6.32;;;;;;;1.22;94.04;102028.38;5286302;28;20515;-77
2022/03/25 02:24:49;;;;;;;14.23;6.10;;;;;;;1.48;92.31;102029.91;5281487;28;20016;-77
2022/03/25 02:27:23;;;;;;;16.83;6.57;;;;;;;1.40;92.38;102027.97;5258545;28;20509;-76
2022/03/25 02:29:53;;;;;;;12.23;5.90;;;;;;;1.10;94.12;102030.63;5281734;28;20028;-77
2022/03/25 02:32:23;;;;;;;13.27;6.43;;;;;;;1.12;95.42;102034.13;5280184;28;20057;-76
2022/03/25 02:34:53;;;;;;;13.15;6.07;;;;;;;1.20;95.22;102024.91;5283769;28;20107;-76
2022/03/25 02:37:25;;;;;;;17.65;6.65;;;;;;;1.18;94.90;102035.97;5287831;28;20031;-76
2022/03/25 02:39:55;;;;;;;15.23;6.10;;;;;;;1.36;94.63;102033.84;5283590;28;20036;-76
2022/03/25 02:42:26;;;;;;;11.60;5.63;;;;;;;1.65;90.77;102036.31;5283338;28;20032;-76
2022/03/25 02:44:56;;;;;;;11.07;5.53;;;;;;;1.50;90.13;102030.81;5278811;28;20099;-76
2022/03/25 02:47:26;;;;;;;12.57;5.72;;;;;;;1.52;91.64;102047.16;5278894;28;20100;-77
2022/03/25 02:49:57;;;;;;;13.20;5.78;;;;;;;1.80;88.33;102034.09;5279239;28;20095;-77
2022/03/25 02:52:27;;;;;;;10.82;5.60;;;;;;;1.91;87.22;102022.31;5274280;28;20028;-77
2022/03/25 02:54:57;;;;;;;11.02;5.53;;;;;;;1.83;87.32;102034.16;5272580;28;20355;-77
2022/03/25 02:57:27;;;;;;;11.70;5.45;;;;;;;1.72;86.76;102035.63;5274340;28;20029;-77
2022/03/25 02:59:58;;;;;;;13.80;5.70;;;;;;;1.60;87.03;102034.47;5272467;28;20039;-77
2022/03/25 03:02:28;;;;;;;11.10;4.80;;;;;;;1.43;88.92;102035.75;5274471;28;20030;-77
2022/03/25 03:04:58;;;;;;;17.17;5.63;;;;;;;1.41;88.87;102037.44;5253313;28;20367;-77
2022/03/25 03:07:29;;;;;;;14.68;6.20;;;;;;;1.52;88.57;102039.44;5274775;28;20034;-77
2022/03/25 03:09:59;;;;;;;13.70;5.60;;;;;;;1.28;90.11;102035.38;5272220;28;20024;-77
2022/03/25 03:12:29;;;;;;;12.45;5.55;;;;;;;1.34;89.71;102036.41;5274682;28;20025;-77
2022/03/25 03:15:00;;;;;;;13.23;5.75;;;;;;;1.22;91.06;102030.09;5271735;28;20382;-77
2022/03/25 03:17:31;;;;;;;16.48;6.53;;;;;;;1.08;91.06;102032.28;5274886;28;20027;-77
2022/03/25 03:20:02;;;;;;;16.00;6.45;;;;;;;1.12;92.82;102029.00;5271830;28;20111;-77
2022/03/25 03:22:33;;;;;;;16.25;7.07;;;;;;;1.10;92.17;102030.63;5274953;28;20477;-77
2022/03/25 03:25:04;;;;;;;16.80;6.55;;;;;;;1.05;92.59;102032.22;5266494;28;20065;-77
2022/03/25 03:27:34;;;;;;;13.55;5.72;;;;;;;1.11;93.15;102026.38;5264117;28;20500;-77
2022/03/25 03:30:08;;;;;;;16.23;6.28;;;;;;;1.33;91.54;102026.94;5274314;28;20120;-76
2022/03/25 03:32:38;;;;;;;16.98;6.95;;;;;;;1.39;88.64;102034.81;5272323;28;20088;-77
2022/03/25 03:35:09;;;;;;;19.75;6.47;;;;;;;1.29;89.02;102032.88;5279579;28;20028;-76
2022/03/25 03:37:45;;;;;;;15.15;6.80;;;;;;;1.18;91.36;102033.41;5279181;28;20047;-76
2022/03/25 03:40:15;;;;;;;16.65;6.60;;;;;;;1.06;91.90;102033.97;5276589;28;20024;-77
2022/03/25 03:42:46;;;;;;;16.60;6.80;;;;;;;1.18;91.48;102031.72;5277746;28;20400;-77
2022/03/25 03:45:16;;;;;;;14.82;6.63;;;;;;;1.38;90.29;102033.06;5277021;28;20024;-77
2022/03/25 03:47:47;;;;;;;16.55;6.28;;;;;;;1.35;88.62;102026.97;5277988;28;20386;-77
2022/03/25 03:50:17;;;;;;;16.25;6.22;;;;;;;1.38;88.94;102027.91;5276751;28;20034;-76
2022/03/25 03:52:48;;;;;;;17.60;6.47;;;;;;;1.48;87.76;102029.91;5277396;28;20031;-77
2022/03/25 03:55:19;;;;;;;16.08;6.70;;;;;;;1.26;89.05;102030.19;5277248;28;20128;-77
2022/03/25 03:57:49;;;;;;;17.20;7.07;;;;;;;1.19;89.69;102032.56;5258746;28;20648;-77
2022/03/25 04:00:20;;;;;;;16.08;6.82;;;;;;;1.24;89.98;102028.44;5277089;28;20035;-77
2022/03/25 04:02:50;;;;;;;17.13;6.63;;;;;;;1.20;89.12;102027.47;5276778;28;20108;-77
2022/03/25 04:05:21;;;;;;;12.35;6.20;;;;;;;1.06;89.83;102028.81;5271868;28;20056;-76
2022/03/25 04:07:51;;;;;;;21.83;6.53;;;;;;;1.11;89.66;102029.81;5271333;28;20381;-76
2022/03/25 04:10:22;;;;;;;13.18;6.72;;;;;;;0.79;92.12;102040.97;5276443;28;20024;-76
2022/03/25 04:12:52;;;;;;;15.18;7.28;;;;;;;0.72;93.29;102044.19;5276976;28;20537;-77
2022/03/25 04:15:22;;;;;;;14.30;6.45;;;;;;;0.96;92.97;102038.84;5277520;28;20031;-76
2022/03/25 04:17:53;;;;;;;15.13;6.70;;;;;;;1.10;89.75;102040.91;5276734;28;20047;-77
2022/03/25 04:20:23;;;;;;;13.52;6.38;;;;;;;0.80;90.82;102037.56;5276381;28;20032;-76
2022/03/25 04:22:53;;;;;;;15.90;6.80;;;;;;;0.73;92.53;102040.78;5275559;28;20035;-77
2022/03/25 04:25:24;;;;;;;17.27;7.10;;;;;;;0.87;92.20;102046.31;5277387;28;20413;-77
2022/03/25 04:27:57;;;;;;;16.17;6.95;;;;;;;0.93;89.86;102038.75;5257377;28;20051;-77
2022/03/25 04:30:32;;;;;;;17.90;7.53;;;;;;;0.71;92.27;102037.31;5277566;28;20638;-77
2022/03/25 04:33:04;;;;;;;18.40;7.07;;;;;;;0.68;92.04;102033.75;5275033;28;20110;-77
2022/03/25 04:35:34;;;;;;;13.73;6.70;;;;;;;0.65;92.61;102032.00;5278573;28;20081;-76
2022/03/25 04:38:04;;;;;;;19.23;6.72;;;;;;;0.64;91.87;102040.56;5274694;28;20394;-76
2022/03/25 04:40:35;;;;;;;19.17;7.95;;;;;;;0.71;90.99;102036.44;5277868;28;20366;-77
2022/03/25 04:43:05;;;;;;;18.13;7.25;;;;;;;0.33;93.09;102048.22;5274155;28;20035;-77
2022/03/25 04:45:37;;;;;;;18.50;7.38;;;;;;;0.37;95.36;102047.47;5278502;28;20028;-76
2022/03/25 04:48:09;;;;;;;17.52;6.90;;;;;;;0.56;93.48;102044.59;5274378;28;20024;-77
2022/03/25 04:50:40;;;;;;;16.30;7.05;;;;;;;0.41;92.75;102056.16;5259037;28;20476;-77
2022/03/25 04:53:11;;;;;;;22.98;8.15;;;;;;;0.41;94.26;102054.44;5274612;28;20508;-77
2022/03/25 04:55:41;;;;;;;16.75;7.50;;;;;;;0.53;95.00;102052.22;5276174;28;20032;-77
2022/03/25 04:58:11;;;;;;;19.13;7.80;;;;;;;0.65;93.71;102049.13;5274186;28;20028;-77
2022/03/25 05:00:43;;;;;;;18.13;6.95;;;;;;;0.41;91.65;102058.72;5276861;28;20023;-76
2022/03/25 05:03:13;;;;;;;17.67;7.38;;;;;;;0.65;93.94;102059.41;5273846;28;20036;-76
2022/03/25 05:05:44;;;;;;;16.92;7.53;;;;;;;0.63;92.77;102056.81;5276661;28;20089;-77
2022/03/25 05:08:15;;;;;;;19.55;7.53;;;;;;;0.74;92.48;102047.66;5274972;28;20024;-77
2022/03/25 05:10:45;;;;;;;17.92;7.63;;;;;;;0.87;91.91;102051.47;5257584;28;20060;-77
2022/03/25 05:13:16;;;;;;;21.30;7.55;;;;;;;0.86;91.55;102055.72;5275186;28;20487;-76
2022/03/25 05:15:46;;;;;;;16.73;7.85;;;;;;;0.89;90.30;102055.81;5276093;28;20020;-77
2022/03/25 05:18:17;;;;;;;21.90;7.95;;;;;;;0.47;93.33;102066.59;5275053;28;20056;-76
2022/03/25 05:20:48;;;;;;;18.83;7.40;;;;;;;0.71;92.12;102064.75;5275314;28;20019;-77
2022/03/25 05:23:18;;;;;;;17.55;7.95;;;;;;;0.66;91.82;102071.44;5275286;28;20051;-77
2022/03/25 05:25:48;;;;;;;17.23;6.95;;;;;;;0.80;91.52;102071.00;5275767;28;20015;-76
2022/03/25 05:28:19;;;;;;;15.73;6.90;;;;;;;0.63;91.34;102079.06;5274876;28;20063;-77
2022/03/25 05:30:49;;;;;;;19.17;7.57;;;;;;;0.49;93.38;102072.66;5275261;28;20031;-76
2022/03/25 05:33:20;;;;;;;17.08;7.53;;;;;;;0.38;93.04;102074.94;5275818;28;20042;-77
2022/03/25 05:35:50;;;;;;;15.45;7.25;;;;;;;0.54;92.52;102076.25;5274986;28;20031;-76
2022/03/25 05:38:21;;;;;;;14.70;6.90;;;;;;;0.67;92.54;102079.22;5275815;28;20059;-76
2022/03/25 05:40:51;;;;;;;14.82;7.32;;;;;;;0.83;90.87;102075.34;5274927;28;20073;-76
2022/03/25 05:43:21;;;;;;;18.25;7.22;;;;;;;1.02;91.29;102081.03;5275127;28;20111;-76
2022/03/25 05:45:51;;;;;;;17.10;7.95;;;;;;;0.95;90.35;102079.16;5274774;28;20408;-77
2022/03/25 05:48:22;;;;;;;18.05;7.32;;;;;;;0.99;92.63;102080.09;5274546;28;20028;-77
2022/03/25 05:50:52;;;;;;;19.42;7.80;;;;;;;0.96;91.68;102083.47;5274246;28;20034;-76
2022/03/25 05:53:22;;;;;;;14.98;7.57;;;;;;;1.23;91.45;102089.31;5275216;28;20051;-76
2022/03/25 05:55:53;;;;;;;20.20;7.65;;;;;;;1.16;91.20;102089.13;5275613;28;20027;-76
2022/03/25 05:58:23;;;;;;;15.63;7.25;;;;;;;1.38;91.46;102079.44;5266299;28;20031;-76
2022/03/25 06:00:53;;;;;;;21.20;8.30;;;;;;;1.58;90.21;102082.50;5276409;28;20046;-77
2022/03/25 06:03:23;;;;;;;20.70;8.20;;;;;;;1.66;89.44;102083.56;5274649;28;20107;-77
2022/03/25 06:05:54;;;;;;;17.77;8.13;;;;;;;1.09;91.77;102090.66;5274633;28;20020;-77
2022/03/25 06:08:24;;;;;;;17.33;7.50;;;;;;;0.79;93.85;102089.84;5275262;28;20028;-77
2022/03/25 06:10:55;;;;;;;18.80;8.07;;;;;;;1.25;93.37;102095.38;5273780;28;20113;-77
2022/03/25 06:13:26;;;;;;;16.45;7.57;;;;;;;1.35;93.25;102092.22;5275342;28;20097;-77
2022/03/25 06:15:57;;;;;;;18.92;8.05;;;;;;;1.63;89.80;102094.69;5275125;28;20089;-77
2022/03/25 06:18:27;;;;;;;21.58;7.88;;;;;;;1.33;93.23;102096.47;5275068;28;20058;-77
2022/03/25 06:20:58;;;;;;;18.40;8.63;;;;;;;1.54;92.90;102099.59;5274229;28;20027;-77
2022/03/25 06:23:28;;;;;;;19.70;7.78;;;;;;;1.88;90.04;102099.56;5273126;28;20031;-77
2022/03/25 06:25:59;;;;;;;21.98;8.35;;;;;;;2.00;90.97;102094.72;5255387;28;20023;-77
2022/03/25 06:28:30;;;;;;;16.55;8.27;;;;;;;2.25;89.83;102094.41;5269465;28;20024;-77
2022/03/25 06:31:00;;;;;;;19.83;7.75;;;;;;;1.96;92.25;102093.75;5259359;28;20034;-77
2022/03/25 06:33:30;;;;;;;20.33;8.80;;;;;;;1.64;95.17;102096.41;5276173;28;20032;-77
2022/03/25 06:36:01;;;;;;;21.08;9.40;;;;;;;2.22;95.58;102108.13;5279276;28;20096;-77
2022/03/25 06:38:31;;;;;;;19.20;9.40;;;;;;;2.65;90.38;102095.28;5278903;28;20092;-77
2022/03/25 06:41:02;;;;;;;20.40;9.60;;;;;;;2.16;95.85;102105.38;5276845;28;20041;-77
2022/03/25 06:43:33;;;;;;;19.67;10.48;;;;;;;2.47;97.45;102094.91;5280456;28;20020;-77
2022/03/25 06:46:04;;;;;;;21.45;10.43;;;;;;;3.11;95.06;102097.06;5276389;28;20018;-77
2022/03/25 06:48:35;;;;;;;28.10;12.70;;;;;;;3.42;95.03;102099.34;5262051;28;20034;-77
2022/03/25 06:51:05;;;;;;;29.38;13.48;;;;;;;2.96;96.79;102096.75;5253363;28;20019;-77
2022/03/25 06:53:37;;;;;;;32.90;13.45;;;;;;;2.89;98.29;102116.44;5268541;28;20102;-77
2022/03/25 06:56:08;;;;;;;28.45;13.68;;;;;;;3.31;94.60;102116.38;5258829;28;20131;-77
2022/03/25 06:58:39;;;;;;;31.27;13.15;;;;;;;3.70;93.10;102113.66;5270321;28;20393;-77
2022/03/25 07:01:09;;;;;;;27.83;12.75;;;;;;;4.18;91.93;102110.97;5278803;28;20035;-77
2022/03/25 07:03:40;;;;;;;24.50;13.05;;;;;;;4.41;87.50;102118.22;5275998;28;20024;-77
2022/03/25 07:06:11;;;;;;;26.50;12.82;;;;;;;4.29;87.86;102118.03;5261734;28;20012;-77
2022/03/25 07:08:45;;;;;;;29.88;12.73;;;;;;;4.74;89.06;102117.78;5277708;28;20035;-77
2022/03/25 07:11:16;;;;;;;31.00;12.57;;;;;;;4.46;87.12;102121.72;5276017;28;20066;-78
2022/03/25 07:13:47;;;;;;;24.83;12.52;;;;;;;5.07;87.58;102121.66;5276839;28;20027;-77
2022/03/25 07:16:19;;;;;;;31.40;13.10;;;;;;;4.67;90.89;102127.19;5257436;28;20024;-77
2022/03/25 07:18:49;;;;;;;33.53;13.75;;;;;;;5.53;88.60;102116.94;5277067;28;20100;-77
2022/03/25 07:21:20;;;;;;;25.25;12.52;;;;;;;6.92;81.53;102121.41;5259511;28;20497;-77
2022/03/25 07:23:51;;;;;;;25.50;12.05;;;;;;;8.47;74.60;102112.84;5269634;28;20032;-77
2022/03/25 07:26:21;;;;;;;27.98;13.07;;;;;;;7.92;75.98;102116.38;5275519;28;20401;-77
2022/03/25 07:28:52;;;;;;;21.20;11.45;;;;;;;9.18;74.85;102112.56;5272367;28;20521;-77
2022/03/25 07:31:28;;;;;;;21.55;11.40;;;;;;;12.46;64.90;102103.34;5278025;28;20031;-77
2022/03/25 07:33:59;;;;;;;21.67;11.25;;;;;;;13.54;59.13;102103.72;5283886;28;20016;-78
2022/03/25 07:36:29;;;;;;;23.33;12.00;;;;;;;15.40;55.69;102092.41;5276529;28;20032;-78
2022/03/25 07:39:01;;;;;;;22.77;11.23;;;;;;;15.62;54.36;102104.03;5281609;28;20082;-75
2022/03/25 07:41:32;;;;;;;21.35;11.70;;;;;;;15.96;54.49;102102.03;5283178;28;20058;-75
2022/03/25 07:44:02;;;;;;;22.58;11.63;;;;;;;16.76;53.04;102091.28;5279478;28;20020;-78
2022/03/25 07:46:33;;;;;;;19.15;10.93;;;;;;;17.39;51.36;102100.31;5284668;28;20023;-76
2022/03/25 07:49:03;;;;;;;26.98;11.52;;;;;;;16.41;52.29;102118.94;5280517;28;20024;-78
2022/03/25 07:51:34;;;;;;;23.30;11.88;;;;;;;16.56;52.09;102114.91;5274048;28;20023;-77
2022/03/25 07:54:05;;;;;;;22.13;11.77;;;;;;;16.23;51.71;102121.34;5269855;28;20031;-77
2022/03/25 07:56:36;;;;;;;24.88;11.55;;;;;;;15.40;53.01;102131.94;5263256;28;20312;-77
2022/03/25 07:59:08;;;;;;;25.35;12.50;;;;;;;14.34;55.48;102136.75;5268700;28;20024;-78
2022/03/25 08:01:38;;;;;;;27.02;12.23;;;;;;;15.31;53.85;102131.34;5274672;28;20055;-77
2022/03/25 08:04:08;;;;;;;23.73;11.32;;;;;;;16.92;51.80;102125.00;5271494;28;20059;-77
2022/03/25 08:06:39;;;;;;;23.20;11.83;;;;;;;15.41;53.35;102133.69;5275138;28;20064;-78
2022/03/25 08:09:10;;;;;;;22.38;11.65;;;;;;;16.60;51.81;102130.59;5271774;28;20265;-77
2022/03/25 08:11:41;;;;;;;19.40;11.60;;;;;;;16.24;53.73;102134.44;5274414;28;20094;-78
2022/03/25 08:14:13;;;;;;;24.30;12.13;;;;;;;17.31;49.95;102128.81;5272868;28;20036;-78
2022/03/25 08:16:45;;;;;;;21.83;11.80;;;;;;;16.81;51.16;102140.38;5276218;28;20652;-78
2022/03/25 08:19:15;;;;;;;21.13;10.95;;;;;;;16.86;50.48;102134.03;5277608;28;20032;-78
2022/03/25 08:21:45;;;;;;;20.98;11.45;;;;;;;17.91;49.57;102132.56;5278586;28;20384;-78
2022/03/25 08:29:55;;;;;;;23.45;12.20;;;;;;;17.12;50.00;102138.34;5274222;28;20485;-78
2022/03/25 08:32:25;;;;;;;22.42;12.63;;;;;;;18.76;46.27;102135.94;5277240;28;20111;-78
2022/03/25 08:34:55;;;;;;;22.50;12.30;;;;;;;18.36;47.12;102135.94;5278519;28;20540;-78
2022/03/25 08:37:26;;;;;;;24.40;12.27;;;;;;;15.95;50.86;102149.53;5277921;28;20273;-77
2022/03/25 08:39:56;;;;;;;23.33;12.53;;;;;;;17.65;48.41;102143.31;5281620;28;20297;-78
2022/03/25 08:42:26;;;;;;;21.63;12.10;;;;;;;18.45;46.39;102142.63;5277217;28;20285;-78
2022/03/25 08:44:56;;;;;;;21.97;11.83;;;;;;;19.02;44.87;102146.22;5276046;28;20277;-78
2022/03/25 08:47:27;;;;;;;21.15;12.63;;;;;;;19.80;44.21;102140.72;5279510;28;20035;-78
2022/03/25 08:49:57;;;;;;;24.43;11.90;;;;;;;21.18;43.18;102133.53;5301765;22;20457;-81
2022/03/25 08:52:27;;;;;;;23.42;12.95;;;;;;;18.53;46.00;102145.81;5278946;28;20035;-81
2022/03/25 08:54:58;;;;;;;24.90;12.85;;;;;;;19.70;45.81;102134.16;5281813;27;20027;-79
2022/03/25 08:57:28;;;;;;;19.88;12.57;;;;;;;19.41;45.67;102145.28;5282503;27;20090;-79
2022/03/25 08:59:58;;;;;;;22.65;12.60;;;;;;;19.33;46.39;102138.63;5283509;27;20065;-79
2022/03/25 09:02:29;;;;;;;21.67;13.23;;;;;;;19.05;43.86;102146.09;5273953;28;20024;-80
2022/03/25 09:04:59;;;;;;;23.33;13.50;;;;;;;18.89;44.60;102143.28;5273589;28;20129;-81
2022/03/25 09:07:30;;;;;;;22.90;13.10;;;;;;;19.08;44.61;102138.84;5293558;28;20173;-79
2022/03/25 09:10:00;;;;;;;20.13;12.70;;;;;;;19.42;43.93;102144.34;5290550;28;20031;-81
2022/03/25 09:12:37;;;;;;;27.05;13.98;;;;;;;18.80;44.54;102143.66;5274304;28;20343;-82
2022/03/25 09:15:09;;;;;;;21.95;12.43;;;;;;;21.02;42.91;102137.94;5265508;28;20027;-81
2022/03/25 09:17:42;;;;;;;22.40;12.30;;;;;;;18.83;44.82;102146.22;5292554;28;20030;-80
2022/03/25 09:20:13;;;;;;;22.95;13.25;;;;;;;19.48;43.95;102149.38;5287743;28;20040;-81
2022/03/25 09:22:44;;;;;;;23.30;12.10;;;;;;;19.77;43.56;102140.03;5287597;28;20028;-80
2022/03/25 09:25:14;;;;;;;22.80;12.80;;;;;;;19.07;44.53;102145.09;5273527;28;20034;-81
2022/03/25 09:27:48;;;;;;;23.23;12.77;;;;;;;19.00;44.27;102145.44;5284039;28;20094;-80
2022/03/25 09:30:18;;;;;;;23.17;12.82;;;;;;;18.72;44.75;102150.22;5290453;28;20028;-81
2022/03/25 09:32:49;;;;;;;25.88;13.50;;;;;;;17.76;46.96;102151.69;5272936;28;20708;-79
2022/03/25 09:35:21;;;;;;;21.70;13.23;;;;;;;17.31;47.54;102147.31;5272502;28;20032;-79
2022/03/25 09:37:51;;;;;;;23.83;13.85;;;;;;;17.17;47.97;102147.81;5291547;28;20030;-79
2022/03/25 09:40:25;;;;;;;25.42;13.32;;;;;;;17.80;48.97;102147.16;5270766;28;20023;-80
2022/03/25 09:42:57;;;;;;;25.48;14.30;;;;;;;17.69;49.09;102152.00;5290595;28;20038;-81
2022/03/25 09:45:30;;;;;;;26.35;14.73;;;;;;;16.52;51.14;102156.38;5273420;28;20053;-80
2022/03/25 09:48:01;;;;;;;23.92;14.02;;;;;;;17.02;50.09;102148.41;5291781;28;20016;-78
2022/03/25 09:50:37;;;;;;;28.40;14.18;;;;;;;17.10;49.73;102150.72;5269430;28;20030;-79
2022/03/25 09:53:08;;;;;;;28.95;15.00;;;;;;;17.59;48.35;102140.91;5265287;28;20100;-80
2022/03/25 09:55:42;;;;;;;28.05;13.95;;;;;;;17.41;48.68;102146.91;5290693;28;20071;-80
2022/03/25 09:58:19;;;;;;;32.00;14.75;;;;;;;16.90;50.26;102147.97;5281636;28;20032;-80
2022/03/25 10:00:51;;;;;;;27.08;14.52;;;;;;;17.39;49.25;102161.09;5290445;28;20148;-79
2022/03/25 10:03:36;;;;;;;31.58;15.35;;;;;;;17.04;48.42;102146.56;5272274;28;20032;-78
2022/03/25 10:06:10;;;;;;;29.23;14.97;;;;;;;16.69;49.38;102154.03;5264562;28;20019;-79
2022/03/25 10:08:47;;;;;;;34.45;15.23;;;;;;;15.83;50.99;102156.06;5289428;28;20049;-81
2022/03/25 10:11:30;;;;;;;27.13;14.93;;;;;;;16.22;51.50;102151.28;5270497;28;20035;-81
2022/03/25 10:14:29;;;;;;;32.35;15.65;;;;;;;16.37;51.11;102153.44;5290499;28;20020;-79
2022/03/25 10:17:25;;;;;;;31.00;15.73;;;;;;;15.46;53.31;102158.13;5288136;28;20607;-79
2022/03/25 10:20:08;;;;;;;31.27;15.32;;;;;;;15.70;53.92;102144.19;5267971;28;20024;-80
2022/03/25 10:22:55;;;;;;;28.20;15.25;;;;;;;16.06;52.00;102147.41;5276972;28;20038;-80
2022/03/25 10:25:47;;;;;;;30.63;15.68;;;;;;;15.65;54.30;102148.75;5271941;28;20027;-81
2022/03/25 10:28:45;;;;;;;29.67;14.38;;;;;;;15.88;52.90;102145.38;5261204;28;20087;-80
2022/03/25 10:31:21;;;;;;;26.83;15.82;;;;;;;16.14;53.98;102146.25;5284671;28;20670;-79
2022/03/25 10:33:57;;;;;;;30.63;16.90;;;;;;;15.59;53.78;102135.75;5290133;28;20513;-79
2022/03/25 10:36:31;;;;;;;30.60;17.08;;;;;;;15.70;55.86;102145.97;5289679;28;20027;-80
2022/03/25 10:39:05;;;;;;;34.85;19.05;;;;;;;15.59;56.68;102141.03;5287215;28;20027;-79
2022/03/25 10:41:39;;;;;;;38.67;20.53;;;;;;;15.43;56.83;102152.06;5288604;28;20611;-79
2022/03/25 10:44:10;;;;;;;35.25;19.67;;;;;;;15.15;57.11;102141.47;5289199;28;20042;-79
2022/03/25 10:46:46;;;;;;;33.03;19.45;;;;;;;15.30;55.82;102137.53;5290211;28;20027;-79
2022/03/25 10:49:21;;;;;;;36.85;20.15;;;;;;;15.09;56.14;102139.03;5288816;28;20024;-78
2022/03/25 10:51:53;;;;;;;32.50;18.70;;;;;;;15.34;56.73;102140.03;5282460;28;20031;-80
2022/03/25 10:54:26;;;;;;;30.45;17.52;;;;;;;15.36;55.75;102146.13;5289015;28;20085;-79
2022/03/25 10:56:59;;;;;;;34.13;17.42;;;;;;;15.44;55.17;102143.25;5265523;28;20033;-80
2022/03/25 10:59:32;;;;;;;35.45;18.45;;;;;;;15.57;54.86;102149.88;5266861;28;20030;-79
2022/03/25 11:02:05;;;;;;;37.50;19.73;;;;;;;15.77;56.04;102132.53;5289864;28;20019;-80
2022/03/25 11:04:36;;;;;;;36.60;21.13;;;;;;;15.61;55.26;102131.31;5289243;28;20038;-80
2022/03/25 11:07:09;;;;;;;37.30;20.33;;;;;;;15.64;55.78;102136.47;5281177;28;20075;-78
2022/03/25 11:09:40;;;;;;;32.92;17.38;;;;;;;15.73;55.52;102138.81;5269942;28;20057;-78
2022/03/25 11:12:11;;;;;;;35.72;18.58;;;;;;;15.57;55.32;102131.44;5270308;28;20051;-79
2022/03/25 11:14:41;;;;;;;36.05;18.20;;;;;;;15.69;56.01;102129.28;5289359;28;20546;-78
2022/03/25 11:17:12;;;;;;;38.20;19.10;;;;;;;15.52;55.49;102131.56;5271003;28;20035;-79
2022/03/25 11:19:43;;;;;;;32.85;18.70;;;;;;;15.47;55.31;102133.50;5288773;28;20392;-79
2022/03/25 11:22:17;;;;;;;31.30;17.30;;;;;;;15.71;56.29;102134.50;5280200;28;20044;-80
2022/03/25 11:24:52;;;;;;;32.28;18.13;;;;;;;15.97;54.49;102126.59;5288766;28;20035;-80
2022/03/25 11:27:30;;;;;;;33.28;17.08;;;;;;;16.01;54.93;102130.88;5263474;28;20045;-79
2022/03/25 11:30:09;;;;;;;32.33;18.27;;;;;;;15.86;56.09;102132.22;5268492;28;20027;-80
2022/03/25 11:33:04;;;;;;;30.33;17.55;;;;;;;16.07;55.30;102120.13;5281528;28;20023;-79
2022/03/25 11:35:37;;;;;;;31.40;17.92;;;;;;;15.83;54.89;102113.00;5289665;28;20028;-80
2022/03/25 11:38:10;;;;;;;34.47;17.90;;;;;;;15.78;54.99;102123.72;5286941;28;20508;-78
2022/03/25 11:40:46;;;;;;;28.65;17.45;;;;;;;15.80;55.25;102115.75;5266561;28;20042;-79
2022/03/25 11:43:28;;;;;;;30.10;17.20;;;;;;;16.00;55.24;102114.19;5279448;28;20035;-79
2022/03/25 11:46:08;;;;;;;32.08;18.70;;;;;;;15.94;54.66;102113.53;5271064;28;20024;-80